aviador You're here:

CYKL Decoded Metar

SCHEFFERVILLE in QC, CANADA
Report Time2018-02-22 08:00:00
UTC Time2018-02-22 08:33:22
Flight Rules vfr VFR
Wind300° at 11 Gusting to 16 kt
W.Decomp.*RWY 36: 8.7 kt HW 6.8 kt LCW
W.Rank300° ranks 6
Current wind is above 300° avg. (10.1)
Visibility9999 m
Phenomena:N/A
Clouds:N/A
Expected CloudBase > 1,600 ft AGL from Temp-Dew spread
CeilingNone
Temp-25°C (ISA -37)
Dew Point-29°C (69% RH)
AAT-32.8°C
QNH1018 hPa
Density Alt-3,173 ft
Elevation1,709 ft
Report Wrong Elevation
Raw Report
CYKL 220800Z AUTO 30011G16KT 9SM CLR M25/M29 A3007 RMK PRESRR
SLP248=

Extra information for CYKL:More info

Metar Taf Metar & Taf Last 4 Metars F.Rules Stats Wind Profile Meteogram Temp Stats Airport Information Weather charts Add Link Nearby VenuesMetar ALERT Operation Metar Decoded Social comments